Time;durP1;ratioP1;P1;durP2;ratioP2;P2;SDS_P1;SDS_P2;PMS_P1;PMS_P2;Temp;Humidity;BMP_temperature;BMP_pressure;BME280_temperature;BME280_humidity;BME280_pressure;Samples;Min_cycle;Max_cycle;Signal;HPM_P1;HPM_P2
2022/08/16 00:00:16;;;;;;;2.90;2.30;;;;;;;;;;8364833;28;20020;-57
2022/08/16 00:04:16;;;;;;;2.65;2.40;;;;;;;;;;8358566;28;20097;-57
2022/08/16 00:08:18;;;;;;;2.42;2.22;;;;;;;;;;8364772;28;20521;-57
2022/08/16 00:12:18;;;;;;;6.82;2.72;;;;;;;;;;8369730;28;20541;-57
2022/08/16 00:16:18;;;;;;;3.45;2.50;;;;;;;;;;8357277;28;20055;-58
2022/08/16 00:20:20;;;;;;;2.88;2.50;;;;;;;;;;8360797;28;20544;-57
2022/08/16 00:24:21;;;;;;;2.75;2.30;;;;;;;;;;8357792;28;20025;-57
2022/08/16 00:28:22;;;;;;;3.42;2.42;;;;;;;;;;8355960;28;20473;-57
2022/08/16 00:32:23;;;;;;;3.28;2.30;;;;;;;;;;8355478;28;20509;-57
2022/08/16 00:36:23;;;;;;;2.60;2.30;;;;;;;;;;8358165;28;20066;-57
2022/08/16 00:40:32;;;;;;;3.00;2.70;;;;;;;;;;8358345;28;20032;-58
2022/08/16 00:44:33;;;;;;;3.00;2.80;;;;;;;;;;8356999;28;20370;-58
2022/08/16 00:48:33;;;;;;;2.60;2.40;;;;;;;;;;8356464;28;20688;-57
2022/08/16 00:52:34;;;;;;;2.83;2.33;;;;;;;;;;8354880;28;20025;-57
2022/08/16 00:56:36;;;;;;;2.38;2.20;;;;;;;;;;8352700;28;20032;-58
2022/08/16 01:00:36;;;;;;;2.70;2.50;;;;;;;;;;8356028;28;20090;-58
2022/08/16 01:04:37;;;;;;;3.40;2.80;;;;;;;;;;8361394;28;20068;-58
2022/08/16 01:08:37;;;;;;;3.05;2.85;;;;;;;;;;8358347;28;20100;-57
2022/08/16 01:12:37;;;;;;;3.40;2.60;;;;;;;;;;8359256;28;20389;-57
2022/08/16 01:16:39;;;;;;;2.47;2.22;;;;;;;;;;8360952;28;20063;-57
2022/08/16 01:20:41;;;;;;;3.22;2.47;;;;;;;;;;8358279;28;20144;-57
2022/08/16 01:24:44;;;;;;;7.40;2.58;;;;;;;;;;8361456;28;20033;-57
2022/08/16 01:28:45;;;;;;;2.88;2.63;;;;;;;;;;8353959;28;20069;-57
2022/08/16 01:32:45;;;;;;;3.03;2.72;;;;;;;;;;8352360;28;20126;-57
2022/08/16 01:36:46;;;;;;;3.58;3.25;;;;;;;;;;8358525;28;20028;-58
2022/08/16 01:40:46;;;;;;;2.78;2.58;;;;;;;;;;8358338;28;20404;-57
2022/08/16 01:44:47;;;;;;;3.55;3.15;;;;;;;;;;8358558;28;20044;-57
2022/08/16 01:48:48;;;;;;;4.22;3.50;;;;;;;;;;8357196;28;20068;-57
2022/08/16 01:52:48;;;;;;;3.15;2.80;;;;;;;;;;8363383;28;20116;-57
2022/08/16 01:56:48;;;;;;;3.33;2.90;;;;;;;;;;8354557;28;20406;-57
2022/08/16 02:00:49;;;;;;;3.28;2.97;;;;;;;;;;8356174;28;20404;-57
2022/08/16 02:04:49;;;;;;;3.65;3.35;;;;;;;;;;8356124;28;20021;-57
2022/08/16 02:08:49;;;;;;;4.57;4.03;;;;;;;;;;8361476;28;20078;-57
2022/08/16 02:12:50;;;;;;;4.68;4.28;;;;;;;;;;8363349;28;20021;-57
2022/08/16 02:16:52;;;;;;;5.10;4.35;;;;;;;;;;8357803;28;20041;-58
2022/08/16 02:20:52;;;;;;;6.35;4.68;;;;;;;;;;8359618;28;20068;-57
2022/08/16 02:24:52;;;;;;;7.57;4.72;;;;;;;;;;8360905;28;20032;-56
2022/08/16 02:28:53;;;;;;;5.95;5.35;;;;;;;;;;8358456;28;20025;-57
2022/08/16 02:32:53;;;;;;;5.93;4.97;;;;;;;;;;8365008;28;20268;-57
2022/08/16 02:36:53;;;;;;;5.93;5.32;;;;;;;;;;8367431;28;20302;-57
2022/08/16 02:40:55;;;;;;;6.32;5.63;;;;;;;;;;8364749;28;20361;-57
2022/08/16 02:44:55;;;;;;;6.25;5.57;;;;;;;;;;8362909;28;20264;-57
2022/08/16 02:48:55;;;;;;;6.32;5.10;;;;;;;;;;8361612;28;20035;-57
2022/08/16 02:52:55;;;;;;;6.90;5.70;;;;;;;;;;8365223;28;20032;-57
2022/08/16 02:56:56;;;;;;;7.75;5.65;;;;;;;;;;8362177;28;20024;-57
2022/08/16 03:00:56;;;;;;;9.10;6.72;;;;;;;;;;8363579;28;20036;-57
2022/08/16 03:05:03;;;;;;;7.50;6.50;;;;;;;;;;8370835;28;20788;-57
2022/08/16 03:09:03;;;;;;;8.73;7.72;;;;;;;;;;8381453;28;20436;-57
2022/08/16 03:13:04;;;;;;;13.57;7.28;;;;;;;;;;8377960;28;20366;-57
2022/08/16 03:17:04;;;;;;;8.20;7.27;;;;;;;;;;8370633;28;20079;-57
2022/08/16 03:21:05;;;;;;;9.90;6.70;;;;;;;;;;8371217;28;20089;-57
2022/08/16 03:25:13;;;;;;;8.95;6.72;;;;;;;;;;8369917;28;20390;-57
2022/08/16 03:29:13;;;;;;;7.18;6.47;;;;;;;;;;8363938;28;20468;-57
2022/08/16 03:33:14;;;;;;;7.18;6.07;;;;;;;;;;8366724;28;20060;-57
2022/08/16 03:37:15;;;;;;;9.18;6.75;;;;;;;;;;8370561;28;20055;-57
2022/08/16 03:41:15;;;;;;;7.18;6.38;;;;;;;;;;8370048;28;20460;-57
2022/08/16 03:45:15;;;;;;;11.53;7.00;;;;;;;;;;8367757;28;20411;-57
2022/08/16 03:49:16;;;;;;;8.93;6.47;;;;;;;;;;8369271;28;20048;-57
2022/08/16 03:53:16;;;;;;;7.82;7.13;;;;;;;;;;8375777;28;20441;-56
2022/08/16 03:57:16;;;;;;;9.88;8.00;;;;;;;;;;8366357;28;20076;-57
2022/08/16 04:01:17;;;;;;;11.30;8.80;;;;;;;;;;8368691;28;20488;-57
2022/08/16 04:05:17;;;;;;;10.95;9.20;;;;;;;;;;8369687;28;20044;-57
2022/08/16 04:09:23;;;;;;;10.90;8.77;;;;;;;;;;8375255;28;20021;-57
2022/08/16 04:13:23;;;;;;;10.10;8.27;;;;;;;;;;8378727;28;20012;-57
2022/08/16 04:17:24;;;;;;;10.13;7.68;;;;;;;;;;8373977;28;20096;-57
2022/08/16 04:21:24;;;;;;;11.55;8.18;;;;;;;;;;8378925;28;20084;-59
2022/08/16 04:25:24;;;;;;;10.02;7.32;;;;;;;;;;8373366;28;20025;-57
2022/08/16 04:29:26;;;;;;;9.02;7.85;;;;;;;;;;8372600;28;20037;-57
2022/08/16 04:33:26;;;;;;;8.02;7.00;;;;;;;;;;8372508;28;20040;-57
2022/08/16 04:37:27;;;;;;;8.18;7.47;;;;;;;;;;8380519;28;20020;-56
2022/08/16 04:41:29;;;;;;;7.57;6.43;;;;;;;;;;8381391;28;20020;-57
2022/08/16 04:45:30;;;;;;;7.47;6.50;;;;;;;;;;8376064;28;20040;-57
2022/08/16 04:49:30;;;;;;;13.33;6.90;;;;;;;;;;8372744;28;20117;-57
2022/08/16 04:53:30;;;;;;;8.07;6.40;;;;;;;;;;8377778;28;20119;-57
2022/08/16 04:57:30;;;;;;;7.18;6.25;;;;;;;;;;8366431;28;22126;-57
2022/08/16 05:01:30;;;;;;;7.25;5.90;;;;;;;;;;8375847;28;20060;-57
2022/08/16 05:05:31;;;;;;;6.65;5.97;;;;;;;;;;8371553;28;20190;-57
2022/08/16 05:09:32;;;;;;;7.35;5.82;;;;;;;;;;8373705;28;20028;-57
2022/08/16 05:13:34;;;;;;;5.95;5.20;;;;;;;;;;8373803;28;20089;-57
2022/08/16 05:17:36;;;;;;;7.45;5.85;;;;;;;;;;8369940;28;20032;-57
2022/08/16 05:21:37;;;;;;;7.07;6.10;;;;;;;;;;8377997;28;20020;-57
2022/08/16 05:25:38;;;;;;;6.35;5.75;;;;;;;;;;8370941;28;20024;-57
2022/08/16 05:29:39;;;;;;;8.25;6.38;;;;;;;;;;8367594;28;20028;-57
2022/08/16 05:33:39;;;;;;;9.80;6.60;;;;;;;;;;8369359;28;20043;-57
2022/08/16 05:37:40;;;;;;;10.23;7.45;;;;;;;;;;8372051;28;20029;-57
2022/08/16 05:41:40;;;;;;;9.10;7.13;;;;;;;;;;8372023;28;20039;-57
2022/08/16 05:45:40;;;;;;;7.68;6.97;;;;;;;;;;8374551;28;20040;-57
2022/08/16 05:49:40;;;;;;;7.88;6.65;;;;;;;;;;8370755;28;20488;-57
2022/08/16 05:53:43;;;;;;;9.73;8.17;;;;;;;;;;8366591;28;20113;-57
2022/08/16 05:57:44;;;;;;;9.23;8.10;;;;;;;;;;8362159;28;20027;-57
2022/08/16 06:01:45;;;;;;;7.93;6.80;;;;;;;;;;8368672;28;20548;-57
2022/08/16 06:05:45;;;;;;;15.32;7.05;;;;;;;;;;8374022;28;20123;-57
2022/08/16 06:09:46;;;;;;;17.13;7.70;;;;;;;;;;8373353;28;20028;-58
2022/08/16 06:13:47;;;;;;;13.65;7.30;;;;;;;;;;8370515;28;20316;-57
2022/08/16 06:17:47;;;;;;;7.97;5.60;;;;;;;;;;8371277;28;20097;-58
2022/08/16 06:21:47;;;;;;;14.52;5.72;;;;;;;;;;8370503;28;20020;-57
2022/08/16 06:25:48;;;;;;;9.13;5.30;;;;;;;;;;8366929;28;20330;-58
2022/08/16 06:29:48;;;;;;;7.93;4.60;;;;;;;;;;8370709;28;20489;-57
2022/08/16 06:33:48;;;;;;;9.90;5.00;;;;;;;;;;8371102;28;20056;-58
2022/08/16 06:37:49;;;;;;;7.80;3.80;;;;;;;;;;8371408;28;20029;-58
2022/08/16 06:41:55;;;;;;;4.73;4.00;;;;;;;;;;8375688;28;20028;-58
2022/08/16 06:45:55;;;;;;;11.05;4.65;;;;;;;;;;8373764;28;20159;-58
2022/08/16 06:49:55;;;;;;;13.18;4.55;;;;;;;;;;8376549;28;20039;-57
2022/08/16 06:53:56;;;;;;;6.93;4.65;;;;;;;;;;8375676;28;20097;-58
2022/08/16 06:57:56;;;;;;;5.93;3.80;;;;;;;;;;8388973;28;20035;-58
2022/08/16 07:01:56;;;;;;;8.85;3.80;;;;;;;;;;8389751;28;20269;-58
2022/08/16 07:05:56;;;;;;;7.07;4.05;;;;;;;;;;8390739;28;20595;-59
2022/08/16 07:09:56;;;;;;;4.13;3.22;;;;;;;;;;8390595;28;20012;-58
2022/08/16 07:13:58;;;;;;;6.07;4.22;;;;;;;;;;8391648;28;20552;-58
2022/08/16 07:18:00;;;;;;;6.23;3.30;;;;;;;;;;8390382;28;20032;-58
2022/08/16 07:22:02;;;;;;;6.72;3.70;;;;;;;;;;8389063;28;20441;-58
2022/08/16 07:26:03;;;;;;;6.32;3.88;;;;;;;;;;8389311;28;20028;-58
2022/08/16 07:30:04;;;;;;;5.35;3.40;;;;;;;;;;8389014;28;20020;-57
2022/08/16 07:34:05;;;;;;;3.63;2.90;;;;;;;;;;8393343;28;20012;-58
2022/08/16 07:38:06;;;;;;;5.17;2.90;;;;;;;;;;8389761;28;20084;-58
2022/08/16 07:42:06;;;;;;;3.42;2.75;;;;;;;;;;8385798;28;20055;-58
2022/08/16 07:46:06;;;;;;;3.40;2.55;;;;;;;;;;8385631;28;20299;-58
2022/08/16 07:50:07;;;;;;;3.73;2.80;;;;;;;;;;8387360;28;20366;-59
2022/08/16 07:54:08;;;;;;;4.28;2.45;;;;;;;;;;8388889;28;20389;-58
2022/08/16 07:58:08;;;;;;;2.80;2.50;;;;;;;;;;8387012;28;20027;-58
2022/08/16 08:02:09;;;;;;;3.90;2.42;;;;;;;;;;8384203;28;20036;-58
2022/08/16 08:06:10;;;;;;;4.57;2.22;;;;;;;;;;8385538;28;20382;-58
2022/08/16 08:10:12;;;;;;;4.00;2.40;;;;;;;;;;8389349;28;20048;-57
2022/08/16 08:14:12;;;;;;;3.28;2.30;;;;;;;;;;8389993;28;20035;-58
2022/08/16 08:18:13;;;;;;;2.73;2.53;;;;;;;;;;8386084;28;20131;-58
2022/08/16 08:22:13;;;;;;;2.78;2.30;;;;;;;;;;8383780;28;20028;-58
2022/08/16 08:26:13;;;;;;;2.47;2.28;;;;;;;;;;8387466;28;20028;-57
2022/08/16 08:30:15;;;;;;;3.67;2.47;;;;;;;;;;8385275;28;20133;-58
2022/08/16 08:34:17;;;;;;;2.95;2.50;;;;;;;;;;8381188;28;20110;-57
2022/08/16 08:38:17;;;;;;;3.10;2.65;;;;;;;;;;8379914;28;20020;-57
2022/08/16 08:42:17;;;;;;;3.33;2.65;;;;;;;;;;8374019;28;20113;-57
2022/08/16 08:46:19;;;;;;;2.73;2.50;;;;;;;;;;8369860;28;20041;-57
2022/08/16 08:50:19;;;;;;;2.92;2.40;;;;;;;;;;8374354;28;20614;-57
2022/08/16 08:54:19;;;;;;;5.53;2.60;;;;;;;;;;8382890;28;20091;-57
2022/08/16 08:58:19;;;;;;;2.85;2.30;;;;;;;;;;8381213;28;20051;-58
2022/08/16 09:02:21;;;;;;;3.63;2.40;;;;;;;;;;8379475;28;20075;-57
2022/08/16 09:06:24;;;;;;;3.17;2.50;;;;;;;;;;8372450;28;20024;-57
2022/08/16 09:10:24;;;;;;;5.00;2.20;;;;;;;;;;8371643;28;20025;-57
2022/08/16 09:14:24;;;;;;;3.03;2.05;;;;;;;;;;8370713;28;20024;-58
2022/08/16 09:18:26;;;;;;;2.00;1.90;;;;;;;;;;8363186;28;20242;-57
2022/08/16 09:22:27;;;;;;;1.92;1.70;;;;;;;;;;8372117;28;20459;-57
2022/08/16 09:26:27;;;;;;;3.50;1.80;;;;;;;;;;8366796;28;20028;-57
2022/08/16 09:30:27;;;;;;;2.65;2.45;;;;;;;;;;8359359;28;20032;-57
2022/08/16 09:34:28;;;;;;;2.97;2.28;;;;;;;;;;8369146;28;20215;-57
2022/08/16 09:38:29;;;;;;;3.20;2.00;;;;;;;;;;8365431;28;20806;-58
2022/08/16 09:42:29;;;;;;;2.55;2.13;;;;;;;;;;8368655;28;20024;-58
2022/08/16 09:46:30;;;;;;;3.55;2.15;;;;;;;;;;8370813;28;20106;-58
2022/08/16 09:50:31;;;;;;;2.88;2.20;;;;;;;;;;8382919;28;20270;-58
2022/08/16 09:54:31;;;;;;;2.40;2.20;;;;;;;;;;8379957;28;20055;-59
2022/08/16 09:58:31;;;;;;;3.35;2.30;;;;;;;;;;8375197;28;20024;-58
2022/08/16 10:02:32;;;;;;;2.30;2.10;;;;;;;;;;8370011;28;20762;-58
2022/08/16 10:06:32;;;;;;;2.67;2.03;;;;;;;;;;8370894;28;20840;-57
2022/08/16 10:10:33;;;;;;;5.40;2.20;;;;;;;;;;8370945;28;20506;-58
2022/08/16 10:14:34;;;;;;;4.30;2.23;;;;;;;;;;8371270;28;20244;-58
2022/08/16 10:18:34;;;;;;;2.13;2.03;;;;;;;;;;8366131;28;20913;-58
2022/08/16 10:22:34;;;;;;;2.43;2.00;;;;;;;;;;8366278;28;20025;-58
2022/08/16 10:26:35;;;;;;;2.78;2.00;;;;;;;;;;8369715;28;20029;-58
2022/08/16 10:30:36;;;;;;;3.03;2.00;;;;;;;;;;8379874;28;20155;-58
2022/08/16 10:34:37;;;;;;;2.40;2.13;;;;;;;;;;8389827;28;20331;-58
2022/08/16 10:38:38;;;;;;;4.97;2.50;;;;;;;;;;8391278;28;20028;-58
2022/08/16 10:42:38;;;;;;;2.42;1.98;;;;;;;;;;8388128;28;20035;-57
2022/08/16 10:46:40;;;;;;;3.55;1.88;;;;;;;;;;8389606;28;20048;-58
2022/08/16 10:50:41;;;;;;;2.58;1.80;;;;;;;;;;8392863;28;20024;-57
2022/08/16 10:54:41;;;;;;;3.47;1.80;;;;;;;;;;8395166;28;20024;-58
2022/08/16 10:58:41;;;;;;;2.55;1.80;;;;;;;;;;8390642;28;20306;-58
2022/08/16 11:02:42;;;;;;;5.47;2.23;;;;;;;;;;8393801;28;20764;-58
2022/08/16 11:06:42;;;;;;;3.70;1.90;;;;;;;;;;8388644;28;20040;-58
2022/08/16 11:10:43;;;;;;;3.97;1.90;;;;;;;;;;8375585;28;20472;-58
2022/08/16 11:14:43;;;;;;;1.85;1.70;;;;;;;;;;8357935;28;20050;-57
2022/08/16 11:18:44;;;;;;;1.70;1.60;;;;;;;;;;8357430;28;20040;-58
2022/08/16 11:22:45;;;;;;;3.50;1.80;;;;;;;;;;8357253;28;20106;-58
2022/08/16 11:26:46;;;;;;;3.30;1.88;;;;;;;;;;8359274;28;20028;-58
2022/08/16 11:30:48;;;;;;;3.23;1.90;;;;;;;;;;8369417;28;20096;-59
2022/08/16 11:34:48;;;;;;;3.53;2.20;;;;;;;;;;8379777;28;20468;-58
2022/08/16 11:38:48;;;;;;;2.63;1.90;;;;;;;;;;8382918;28;20028;-62
2022/08/16 11:42:48;;;;;;;1.95;1.77;;;;;;;;;;8386145;28;20025;-59
2022/08/16 11:46:49;;;;;;;1.80;1.70;;;;;;;;;;8378354;28;20072;-59
2022/08/16 11:50:49;;;;;;;2.58;1.80;;;;;;;;;;8372338;28;20028;-59
2022/08/16 11:54:49;;;;;;;4.47;1.80;;;;;;;;;;8378564;28;20057;-59
2022/08/16 11:58:49;;;;;;;2.90;1.67;;;;;;;;;;8358553;28;20025;-58
2022/08/16 12:02:49;;;;;;;2.08;1.80;;;;;;;;;;8351222;28;20041;-58
2022/08/16 12:06:50;;;;;;;4.10;1.77;;;;;;;;;;8349250;28;20041;-58
2022/08/16 12:10:51;;;;;;;1.95;1.80;;;;;;;;;;8351073;28;20254;-58
2022/08/16 12:14:51;;;;;;;2.93;1.87;;;;;;;;;;8369078;28;20063;-58
2022/08/16 12:18:51;;;;;;;3.97;1.80;;;;;;;;;;8375114;28;20048;-58
2022/08/16 12:22:52;;;;;;;1.70;1.60;;;;;;;;;;8373412;28;20020;-58
2022/08/16 12:26:52;;;;;;;3.55;1.90;;;;;;;;;;8370930;28;20063;-59
2022/08/16 12:30:52;;;;;;;2.50;1.80;;;;;;;;;;8368912;28;20028;-58
2022/08/16 12:34:53;;;;;;;1.70;1.60;;;;;;;;;;8364816;28;20264;-59
2022/08/16 12:38:54;;;;;;;1.60;1.50;;;;;;;;;;8372976;28;20020;-58
2022/08/16 12:42:55;;;;;;;2.60;1.60;;;;;;;;;;8367979;28;20104;-58
2022/08/16 12:51:16;;;;;;;1.80;1.70;;;;;;;;;;8371155;28;20039;-58
2022/08/16 12:55:16;;;;;;;2.22;1.80;;;;;;;;;;8362322;28;20115;-58
2022/08/16 12:59:17;;;;;;;3.05;1.75;;;;;;;;;;8363856;28;20031;-57
2022/08/16 13:03:18;;;;;;;3.03;1.80;;;;;;;;;;8374572;28;20029;-58
2022/08/16 13:07:19;;;;;;;2.35;1.60;;;;;;;;;;8372678;28;20074;-58
2022/08/16 13:11:33;;;;;;;2.05;1.60;;;;;;;;;;8378121;28;20027;-58
2022/08/16 13:15:34;;;;;;;2.28;1.80;;;;;;;;;;8377332;28;20086;-58
2022/08/16 13:19:35;;;;;;;2.05;1.70;;;;;;;;;;8375921;28;20086;-57
2022/08/16 13:23:35;;;;;;;1.92;1.77;;;;;;;;;;8374787;28;20025;-57
2022/08/16 13:27:36;;;;;;;2.60;1.80;;;;;;;;;;8368273;28;20516;-58
2022/08/16 13:31:36;;;;;;;3.40;1.83;;;;;;;;;;8364767;28;20043;-58
2022/08/16 13:35:37;;;;;;;2.73;1.63;;;;;;;;;;8366154;28;20028;-58
2022/08/16 13:39:37;;;;;;;1.80;1.70;;;;;;;;;;8370630;28;20035;-58
2022/08/16 13:43:37;;;;;;;1.45;1.40;;;;;;;;;;8373514;28;20496;-58
2022/08/16 13:47:40;;;;;;;1.70;1.60;;;;;;;;;;8374751;28;20479;-58
2022/08/16 13:51:40;;;;;;;11.98;11.07;;;;;;;;;;8374447;28;20032;-58
2022/08/16 13:55:41;;;;;;;4.07;1.48;;;;;;;;;;8373454;28;20064;-58
2022/08/16 13:59:42;;;;;;;2.20;1.80;;;;;;;;;;8373822;28;20024;-58
2022/08/16 14:03:42;;;;;;;2.97;1.95;;;;;;;;;;8375861;28;20136;-58
2022/08/16 14:07:42;;;;;;;1.88;1.77;;;;;;;;;;8368026;28;20059;-58
2022/08/16 14:11:43;;;;;;;2.63;1.90;;;;;;;;;;8363914;28;20075;-58
2022/08/16 14:15:43;;;;;;;2.17;1.70;;;;;;;;;;8360429;28;20515;-58
2022/08/16 14:19:43;;;;;;;2.25;1.85;;;;;;;;;;8360187;28;20036;-58
2022/08/16 14:23:43;;;;;;;3.90;1.88;;;;;;;;;;8361254;28;20074;-59
2022/08/16 14:27:44;;;;;;;3.17;1.80;;;;;;;;;;8362710;28;20024;-59
2022/08/16 14:31:44;;;;;;;3.25;1.92;;;;;;;;;;8370722;28;20032;-58
2022/08/16 14:35:45;;;;;;;2.92;1.60;;;;;;;;;;8374807;28;20087;-58
2022/08/16 14:39:46;;;;;;;2.15;1.88;;;;;;;;;;8369639;28;20029;-59
2022/08/16 14:43:46;;;;;;;3.78;1.83;;;;;;;;;;8368415;28;20428;-58
2022/08/16 14:47:46;;;;;;;2.65;1.92;;;;;;;;;;8370422;28;20070;-58
2022/08/16 14:51:48;;;;;;;2.65;2.10;;;;;;;;;;8370607;28;20012;-58
2022/08/16 14:55:48;;;;;;;;;;;;;;;;;;8375237;28;20032;-59
2022/08/16 14:59:49;;;;;;;2.35;2.00;;;;;;;;;;8370946;28;19912;-58
2022/08/16 15:03:49;;;;;;;3.92;1.75;;;;;;;;;;8373282;28;20048;-58
2022/08/16 15:07:51;;;;;;;2.10;1.60;;;;;;;;;;8376013;28;20115;-58
2022/08/16 15:11:51;;;;;;;5.10;1.80;;;;;;;;;;8377932;28;20021;-58
2022/08/16 15:15:52;;;;;;;2.95;2.08;;;;;;;;;;8374298;28;20092;-58
2022/08/16 15:19:52;;;;;;;2.25;1.98;;;;;;;;;;8371862;28;20384;-58
2022/08/16 15:23:53;;;;;;;4.30;2.10;;;;;;;;;;8373483;28;20114;-58
2022/08/16 15:27:53;;;;;;;2.95;1.67;;;;;;;;;;8365107;28;20156;-58
2022/08/16 15:31:53;;;;;;;2.00;1.83;;;;;;;;;;8367548;28;20083;-58
2022/08/16 15:35:54;;;;;;;1.98;1.88;;;;;;;;;;8372131;28;20040;-58
2022/08/16 15:39:54;;;;;;;2.00;1.90;;;;;;;;;;8376176;28;20308;-58
2022/08/16 15:43:56;;;;;;;2.63;1.90;;;;;;;;;;8376698;28;20501;-58
2022/08/16 15:47:56;;;;;;;3.45;2.25;;;;;;;;;;8373973;28;20268;-58
2022/08/16 15:51:59;;;;;;;2.25;2.10;;;;;;;;;;8376454;28;20436;-58
2022/08/16 15:56:00;;;;;;;3.38;2.20;;;;;;;;;;8375242;28;20149;-58
2022/08/16 16:00:04;;;;;;;3.05;2.15;;;;;;;;;;8376528;28;20123;-58
2022/08/16 16:04:05;;;;;;;3.25;2.10;;;;;;;;;;8378228;28;20052;-58
2022/08/16 16:08:05;;;;;;;3.95;2.00;;;;;;;;;;8382915;28;20496;-58
2022/08/16 16:12:06;;;;;;;1.73;1.63;;;;;;;;;;8378719;28;20027;-59
2022/08/16 16:16:08;;;;;;;3.30;1.70;;;;;;;;;;8373932;28;20036;-58
2022/08/16 16:20:09;;;;;;;4.17;2.10;;;;;;;;;;8375858;28;20033;-59
2022/08/16 16:24:09;;;;;;;5.07;2.08;;;;;;;;;;8382743;28;20251;-58
2022/08/16 16:28:13;;;;;;;2.10;1.90;;;;;;;;;;8378484;28;20062;-58
2022/08/16 16:32:14;;;;;;;2.25;1.80;;;;;;;;;;8377119;28;20403;-58
2022/08/16 16:36:16;;;;;;;2.28;1.70;;;;;;;;;;8370514;28;20039;-58
2022/08/16 16:40:17;;;;;;;1.80;1.70;;;;;;;;;;8375672;28;20087;-58
2022/08/16 16:44:17;;;;;;;3.58;1.80;;;;;;;;;;8373582;28;20604;-59
2022/08/16 16:48:17;;;;;;;2.15;1.90;;;;;;;;;;8355700;28;20047;-59
2022/08/16 16:52:17;;;;;;;2.25;2.05;;;;;;;;;;8365369;28;20024;-59
2022/08/16 16:56:19;;;;;;;3.05;2.00;;;;;;;;;;8355028;28;20333;-59
2022/08/16 17:00:19;;;;;;;2.60;2.00;;;;;;;;;;8354525;28;20562;-59
2022/08/16 17:04:22;;;;;;;2.00;1.80;;;;;;;;;;8345670;28;20075;-60
2022/08/16 17:08:23;;;;;;;2.30;2.10;;;;;;;;;;8345421;28;20354;-60
2022/08/16 17:12:23;;;;;;;2.33;2.13;;;;;;;;;;8343100;28;20583;-60
2022/08/16 17:16:23;;;;;;;2.40;2.20;;;;;;;;;;8344646;28;20059;-60
2022/08/16 17:20:25;;;;;;;2.37;1.80;;;;;;;;;;8342339;28;20293;-60
2022/08/16 17:24:26;;;;;;;2.25;2.00;;;;;;;;;;8346120;28;20538;-59
2022/08/16 17:28:26;;;;;;;3.50;2.13;;;;;;;;;;8345125;28;20698;-60
2022/08/16 17:32:26;;;;;;;5.67;3.13;;;;;;;;;;8359746;28;20527;-58
2022/08/16 17:36:26;;;;;;;2.40;2.13;;;;;;;;;;8368556;28;20337;-57
2022/08/16 17:40:27;;;;;;;2.45;2.15;;;;;;;;;;8364510;28;20635;-57
2022/08/16 17:49:05;;;;;;;2.47;2.28;;;;;;;;;;8377943;28;20028;-58
2022/08/16 17:53:06;;;;;;;2.90;2.63;;;;;;;;;;8369939;28;20020;-57
2022/08/16 17:57:07;;;;;;;3.38;2.10;;;;;;;;;;8367676;28;20047;-57
2022/08/16 18:01:09;;;;;;;2.53;2.30;;;;;;;;;;8367696;28;20040;-58
2022/08/16 18:05:13;;;;;;;2.47;2.27;;;;;;;;;;8370246;28;20515;-58
2022/08/16 18:09:17;;;;;;;2.10;2.00;;;;;;;;;;8368500;28;20066;-57
2022/08/16 18:13:17;;;;;;;3.90;2.95;;;;;;;;;;8363650;28;20024;-57
2022/08/16 18:17:17;;;;;;;2.45;2.22;;;;;;;;;;8363922;28;20480;-57
2022/08/16 18:25:38;;;;;;;4.28;1.95;;;;;;;;;;8367561;28;20059;-57
2022/08/16 18:29:42;;;;;;;2.40;2.20;;;;;;;;;;8369060;28;20062;-57
2022/08/16 18:33:42;;;;;;;2.28;2.08;;;;;;;;;;8366358;28;20125;-57
2022/08/16 18:37:42;;;;;;;5.03;2.65;;;;;;;;;;8367319;28;20450;-57
2022/08/16 18:41:45;;;;;;;4.80;3.03;;;;;;;;;;8366364;28;20043;-57
2022/08/16 18:45:45;;;;;;;;;;;;;;;;;;8366626;28;20090;-57
2022/08/16 18:49:46;;;;;;;6.85;4.78;;;;;;;;;;8364939;28;19908;-57
2022/08/16 18:53:46;;;;;;;7.50;4.97;;;;;;;;;;8364666;28;20036;-57
2022/08/16 18:57:46;;;;;;;6.53;4.78;;;;;;;;;;8365938;28;20020;-56
2022/08/16 19:01:49;;;;;;;4.47;3.70;;;;;;;;;;8366800;28;20398;-57
2022/08/16 19:05:53;;;;;;;4.83;3.93;;;;;;;;;;8372339;28;20028;-57
2022/08/16 19:09:53;;;;;;;4.30;3.90;;;;;;;;;;8367061;28;20461;-57
2022/08/16 19:13:55;;;;;;;6.07;3.70;;;;;;;;;;8366917;28;20028;-57
2022/08/16 19:17:55;;;;;;;4.93;4.22;;;;;;;;;;8369212;28;20692;-57
2022/08/16 19:21:55;;;;;;;5.93;3.90;;;;;;;;;;8368217;28;20021;-57
2022/08/16 19:25:59;;;;;;;5.55;3.42;;;;;;;;;;8372196;28;20133;-57
2022/08/16 19:30:15;;;;;;;6.40;3.88;;;;;;;;;;8377491;28;20425;-57
2022/08/16 19:34:16;;;;;;;5.82;3.83;;;;;;;;;;8366384;28;20017;-57
2022/08/16 19:38:16;;;;;;;6.10;3.45;;;;;;;;;;8366389;28;20024;-57
2022/08/16 19:42:18;;;;;;;3.40;2.97;;;;;;;;;;8368755;28;20609;-57
2022/08/16 19:46:18;;;;;;;6.35;3.15;;;;;;;;;;8370347;28;20040;-57
2022/08/16 19:50:20;;;;;;;3.50;2.88;;;;;;;;;;8372668;28;20049;-56
2022/08/16 19:54:20;;;;;;;4.15;3.00;;;;;;;;;;8373383;28;20589;-57
2022/08/16 19:58:21;;;;;;;3.25;2.75;;;;;;;;;;8372930;28;20020;-56
2022/08/16 20:02:23;;;;;;;4.22;2.70;;;;;;;;;;8369243;28;20431;-57
2022/08/16 20:06:23;;;;;;;2.95;2.75;;;;;;;;;;8365176;28;20020;-57
2022/08/16 20:10:25;;;;;;;3.85;2.55;;;;;;;;;;8367956;28;20017;-57
2022/08/16 20:14:25;;;;;;;3.15;2.85;;;;;;;;;;8365501;28;20024;-56
2022/08/16 20:18:25;;;;;;;2.83;2.58;;;;;;;;;;8367676;28;20036;-57
2022/08/16 20:22:27;;;;;;;3.25;2.78;;;;;;;;;;8366454;28;20147;-57
2022/08/16 20:26:28;;;;;;;3.97;2.92;;;;;;;;;;8368419;28;20119;-57
2022/08/16 20:30:28;;;;;;;4.43;2.50;;;;;;;;;;8368438;28;20036;-57
2022/08/16 20:34:30;;;;;;;3.35;2.70;;;;;;;;;;8369689;28;20406;-57
2022/08/16 20:38:31;;;;;;;3.67;2.42;;;;;;;;;;8369200;28;20034;-57
2022/08/16 20:42:31;;;;;;;3.40;2.30;;;;;;;;;;8367240;28;20037;-57
2022/08/16 20:46:31;;;;;;;3.45;2.60;;;;;;;;;;8367884;28;20049;-57
2022/08/16 20:50:32;;;;;;;2.65;2.30;;;;;;;;;;8363687;28;20596;-57
2022/08/16 20:54:32;;;;;;;3.05;2.70;;;;;;;;;;8364769;28;20074;-57
2022/08/16 20:58:32;;;;;;;3.23;2.07;;;;;;;;;;8369345;28;20535;-55
2022/08/16 21:02:32;;;;;;;3.17;2.50;;;;;;;;;;8366927;28;20608;-57
2022/08/16 21:06:34;;;;;;;2.70;2.50;;;;;;;;;;8371342;28;20994;-57
2022/08/16 21:10:34;;;;;;;2.40;2.17;;;;;;;;;;8367472;28;20024;-57
2022/08/16 21:14:35;;;;;;;2.38;2.17;;;;;;;;;;8366117;28;20028;-57
2022/08/16 21:18:35;;;;;;;2.80;2.60;;;;;;;;;;8366912;28;20046;-57
2022/08/16 21:22:36;;;;;;;2.58;2.38;;;;;;;;;;8362617;28;20032;-57
2022/08/16 21:26:36;;;;;;;4.30;2.53;;;;;;;;;;8367796;28;20119;-57
2022/08/16 21:30:37;;;;;;;2.77;2.57;;;;;;;;;;8368311;28;20661;-57
2022/08/16 21:34:38;;;;;;;3.30;2.35;;;;;;;;;;8368522;28;20431;-59
2022/08/16 21:38:39;;;;;;;3.67;2.45;;;;;;;;;;8372734;28;20495;-57
2022/08/16 21:42:40;;;;;;;2.90;2.63;;;;;;;;;;8370050;28;20119;-58
2022/08/16 21:46:40;;;;;;;3.78;2.30;;;;;;;;;;8368963;28;20063;-56
2022/08/16 21:50:42;;;;;;;3.83;2.37;;;;;;;;;;8365362;28;20052;-57
2022/08/16 21:54:42;;;;;;;2.83;2.25;;;;;;;;;;8363640;28;20267;-57
2022/08/16 21:58:44;;;;;;;4.78;2.65;;;;;;;;;;8366528;28;20032;-57
2022/08/16 22:02:44;;;;;;;2.80;2.55;;;;;;;;;;8363969;28;20041;-57
2022/08/16 22:06:44;;;;;;;5.38;2.70;;;;;;;;;;8360593;28;20634;-57
2022/08/16 22:10:46;;;;;;;4.45;2.40;;;;;;;;;;8356137;28;20036;-56
2022/08/16 22:14:46;;;;;;;3.00;2.60;;;;;;;;;;8356614;28;20070;-57
2022/08/16 22:18:46;;;;;;;3.37;2.50;;;;;;;;;;8356391;28;20072;-57
2022/08/16 22:22:46;;;;;;;5.43;2.70;;;;;;;;;;8354763;28;20294;-57
2022/08/16 22:26:46;;;;;;;2.53;2.33;;;;;;;;;;8362426;28;20032;-57
2022/08/16 22:30:47;;;;;;;2.70;2.50;;;;;;;;;;8359505;28;20328;-56
2022/08/16 22:34:47;;;;;;;2.70;2.50;;;;;;;;;;8355220;28;20479;-57
2022/08/16 22:38:47;;;;;;;2.90;2.58;;;;;;;;;;8355752;28;20389;-57
2022/08/16 22:42:48;;;;;;;2.50;2.30;;;;;;;;;;8355482;28;20352;-57
2022/08/16 22:46:48;;;;;;;2.80;2.50;;;;;;;;;;8360647;28;20082;-57
2022/08/16 22:50:50;;;;;;;7.82;2.53;;;;;;;;;;8360234;28;20036;-57
2022/08/16 22:54:50;;;;;;;3.22;2.67;;;;;;;;;;8363894;28;20573;-57
2022/08/16 22:58:50;;;;;;;2.80;2.50;;;;;;;;;;8367406;28;20031;-57
2022/08/16 23:03:04;;;;;;;3.40;2.70;;;;;;;;;;8358568;28;20037;-57
2022/08/16 23:07:05;;;;;;;4.60;3.05;;;;;;;;;;8360051;28;20285;-57
2022/08/16 23:11:07;;;;;;;2.72;2.47;;;;;;;;;;8360690;28;20020;-57
2022/08/16 23:15:08;;;;;;;4.40;2.67;;;;;;;;;;8362574;28;20089;-58
2022/08/16 23:19:09;;;;;;;2.78;2.50;;;;;;;;;;8364059;28;20473;-57
2022/08/16 23:23:11;;;;;;;2.83;2.35;;;;;;;;;;8366451;28;20063;-57
2022/08/16 23:27:11;;;;;;;4.40;2.25;;;;;;;;;;8370777;28;20024;-56
2022/08/16 23:31:11;;;;;;;2.53;2.33;;;;;;;;;;8366138;28;20123;-57
2022/08/16 23:35:12;;;;;;;3.50;2.35;;;;;;;;;;8365071;28;20029;-57
2022/08/16 23:39:12;;;;;;;2.70;2.40;;;;;;;;;;8364339;28;20039;-57
2022/08/16 23:43:14;;;;;;;3.47;2.47;;;;;;;;;;8366773;28;20020;-57
2022/08/16 23:47:14;;;;;;;4.25;2.33;;;;;;;;;;8371742;28;20422;-57
2022/08/16 23:51:15;;;;;;;2.90;2.50;;;;;;;;;;8370711;28;20450;-57
2022/08/16 23:55:16;;;;;;;2.70;2.35;;;;;;;;;;8371094;28;20507;-57
2022/08/16 23:59:16;;;;;;;4.60;2.42;;;;;;;;;;8372316;28;20024;-57
